Flight Track Log - Related Links

Times and Time Zones

All times are in EDT time to prevent confusion due to time zone crossing. See the GJS3707 flight status page for this flight to view local times or setup timezone preferences in your user account.

Time Position Orientation Groundspeed Altitude Reporting Facility
EDT Latitude Longitude Course Direction KTS MPH feet Rate Location/Type
Thu 03:09:50 PM 43.6261 -116.3708 306° West 244 281 6,400  Level Salt Lake Center
Thu 03:10:52 PM 43.6753 -116.3047 44° Northeast 282 325 8,400 2,000 Climbing Salt Lake Center
Thu 03:11:00 PM 43.6559 -115.5700 78° East  Level FlightAware Approximate
Thu 03:11:53 PM 43.6817 -116.1972 85° East 294 338 10,500  Level Salt Lake Center
Thu 03:12:00 PM 43.6754 -115.4043 83° East  Level FlightAware Approximate
Thu 03:12:55 PM 43.6986 -116.0608 80° East 320 368 12,200  Level Salt Lake Center
Thu 03:13:00 PM 43.6974 -115.2412 65° Northeast  Level FlightAware Approximate
Thu 03:13:57 PM 43.7144 -115.9272 81° East 362 417 13,800  Level Salt Lake Center
Thu 03:14:00 PM 43.7175 -115.0770 81° East  Level FlightAware Approximate
Thu 03:14:59 PM 43.7339 -115.7678 80° East 377 434 15,700  Level Salt Lake Center
Thu 03:16:01 PM 43.7283 -115.6203 93° East 402 463 17,100 1,403 Climbing Salt Lake Center
Thu 03:17:03 PM 43.7147 -115.4428 96° East 416 479 18,600 1,524 Climbing Salt Lake Center
Thu 03:19:06 PM 43.6883 -115.0981 96° East 437 503 21,800 1,492 Climbing Salt Lake Center
Thu 03:20:08 PM 43.6778 -114.9367 95° East 441 507 23,200 1,403 Climbing Salt Lake Center
Thu 03:21:10 PM 43.6703 -114.7733 94° East 445 512 24,700 1,306 Climbing Salt Lake Center
Thu 03:22:12 PM 43.6597 -114.5828 94° East 447 514 25,900 1,065 Climbing Salt Lake Center
Thu 03:23:14 PM 43.6747 -114.4206 83° East 448 516 26,900 1,016 Climbing Salt Lake Center
Thu 03:24:16 PM 43.7128 -114.2342 74° East 452 520 28,000 1,016 Climbing Salt Lake Center
Thu 03:25:18 PM 43.7453 -114.0714 74° East 460 529 29,000 1,016 Climbing Salt Lake Center
Thu 03:26:20 PM 43.7822 -113.8778 75° East 462 532 30,100 1,024 Climbing Salt Lake Center
Thu 03:27:21 PM 43.8150 -113.7133 75° East 464 534 31,100 878 Climbing Salt Lake Center
Thu 03:28:23 PM 43.8508 -113.5194 76° East 468 539 31,900 806 Climbing Salt Lake Center
Thu 03:30:27 PM 43.9125 -113.1842 76° East 472 543 33,600 871 Climbing Salt Lake Center
Thu 03:31:29 PM 43.9481 -112.9872 76° East 471 542 34,600 871 Climbing Salt Lake Center
Thu 03:32:31 PM 43.9792 -112.8203 75° East 468 539 35,400 871 Climbing Salt Lake Center
Thu 03:33:33 PM 43.9975 -112.6222 83° East 467 537 36,400 726 Climbing Salt Lake Center
Thu 03:34:35 PM 44.0036 -112.4500 87° East 467 537 36,900 290 Climbing Salt Lake Center
Thu 03:35:37 PM 44.0111 -112.2469 87° East 473 544 37,000 48 Climbing Salt Lake Center
Thu 03:36:39 PM 44.0178 -112.0714 87° East 476 548 37,000  Level Salt Lake Center
Thu 03:37:40 PM 44.0242 -111.8675 87° East 476 548 37,000  Level Salt Lake Center
Thu 03:38:42 PM 44.0292 -111.6936 88° East 475 547 37,000  Level Salt Lake Center
Thu 03:39:44 PM 44.0353 -111.4903 88° East 475 547 37,000  Level Salt Lake Center
Thu 03:40:46 PM 44.0400 -111.3158 88° East 476 548 37,000  Level Salt Lake Center
Thu 03:41:48 PM 44.0456 -111.1128 88° East 474 545 37,000  Level Salt Lake Center
Thu 03:42:50 PM 44.0497 -110.9381 88° East 476 548 37,000  Level Salt Lake Center
Thu 03:43:52 PM 44.0544 -110.7336 88° East 476 548 37,000  Level Salt Lake Center
Thu 03:44:54 PM 44.0592 -110.5592 88° East 474 545 37,000  Level Salt Lake Center
Thu 03:45:55 PM 44.0628 -110.3550 89° East 475 547 37,000  Level Salt Lake Center
Thu 03:46:57 PM 44.0656 -110.1806 89° East 473 544 37,000  Level Salt Lake Center
Thu 03:47:59 PM 44.0692 -110.0050 88° East 475 547 37,000  Level Salt Lake Center
Thu 03:49:01 PM 44.0714 -109.8011 89° East 474 545 37,000  Level Salt Lake Center
Thu 03:50:03 PM 44.0739 -109.6278 89° East 475 547 37,000  Level Salt Lake Center
Thu 03:51:05 PM 44.0750 -109.4247 89° East 471 542 37,000  Level Salt Lake Center
Thu 03:52:07 PM 44.0769 -109.2494 89° East 473 544 37,000  Level Salt Lake Center
Thu 03:53:08 PM 44.0789 -109.0464 89° East 472 543 37,000  Level Salt Lake Center
Thu 03:54:10 PM 44.0800 -108.8714 89° East 473 544 37,000  Level Salt Lake Center
Thu 03:55:12 PM 44.0806 -108.6683 90° East 472 543 37,000  Level Salt Lake Center
Thu 03:56:14 PM 44.0811 -108.4928 90° East 473 544 37,000  Level Salt Lake Center
Thu 03:57:16 PM 44.0817 -108.3078 90° East 471 542 37,000  Level Salt Lake Center
Thu 03:58:18 PM 44.0808 -108.1042 90° East 471 542 37,000  Level Salt Lake Center
Thu 03:59:20 PM 44.0806 -107.9303 90° East 471 542 37,000  Level Salt Lake Center
Thu 04:00:22 PM 44.0808 -107.7289 90° East 469 540 37,000  Level Salt Lake Center
Thu 04:01:23 PM 44.0800 -107.5569 90° East 467 537 37,000  Level Salt Lake Center
Thu 04:02:25 PM 44.0800 -107.3822 90° East 468 539 37,000  Level Salt Lake Center
Thu 04:03:27 PM 44.0769 -107.1714 91° East 473 544 37,000  Level Salt Lake Center
Thu 04:04:08 PM 44.0772 -107.0517 90° East 475 547 37,000  Level Denver Center
Thu 04:05:10 PM 44.0742 -106.8492 91° East 472 543 37,000  Level Denver Center
Thu 04:05:31 PM 44.0744 -106.7925 90° East 474 545 37,000  Level Salt Lake Center
Thu 04:06:33 PM 44.0697 -106.6203 92° East 470 541 37,000  Level Salt Lake Center
Thu 04:07:14 PM 44.0667 -106.4739 92° East 470 541 37,000  Level Denver Center
Thu 04:08:16 PM 44.0642 -106.2992 91° East 471 542 37,000  Level Denver Center
Thu 04:08:36 PM 44.0642 -106.2417 90° East 472 543 37,000  Level Salt Lake Center
Thu 04:09:18 PM 44.0622 -106.1236 91° East 473 544 37,000  Level Denver Center
Thu 04:10:33 PM 44.0578 -105.8894 91° East 474 545 37,000  Level Denver Center
Thu 04:11:35 PM 44.0525 -105.6858 92° East 473 544 37,000  Level Denver Center
Thu 04:12:37 PM 44.0486 -105.5108 92° East 473 544 37,000  Level Denver Center
Thu 04:13:39 PM 44.0428 -105.3075 92° East 472 543 37,000  Level Denver Center
Thu 04:14:41 PM 44.0392 -105.1325 92° East 472 543 37,000  Level Denver Center
Thu 04:15:43 PM 44.0333 -104.9569 93° East 473 544 37,000  Level Denver Center
Thu 04:16:45 PM 44.0275 -104.7514 92° East 474 545 37,000  Level Denver Center
Thu 04:17:47 PM 44.0222 -104.5756 92° East 475 547 37,000  Level Denver Center
Thu 04:18:49 PM 44.0153 -104.3744 93° East 472 543 37,000  Level Denver Center
Thu 04:19:51 PM 44.0089 -104.2031 93° East 466 536 37,000  Level Denver Center
Thu 04:20:54 PM 44.0014 -104.0017 93° East 468 539 37,000  Level Denver Center
Thu 04:21:56 PM 43.9956 -103.8300 93° East 466 536 37,000  Level Denver Center
Thu 04:22:58 PM 43.9869 -103.6297 93° East 464 534 37,000  Level Denver Center
Thu 04:24:00 PM 43.9800 -103.4572 93° East 466 536 37,000  Level Denver Center
Thu 04:25:02 PM 43.9719 -103.2611 93° East 459 528 37,000  Level Denver Center
Thu 04:26:04 PM 43.9633 -103.0903 94° East 461 531 37,000  Level Denver Center
Thu 04:27:06 PM 43.9533 -102.8931 94° East 460 529 37,000  Level Denver Center
Thu 04:28:08 PM 43.9472 -102.7481 93° East 456 525 37,000  Level Denver Center
Thu 04:29:10 PM 43.9344 -102.5383 95° East 456 525 37,000  Level Denver Center
Thu 04:30:12 PM 43.9236 -102.3619 95° East 458 527 37,000  Level Denver Center
Thu 04:31:13 PM 43.9164 -102.2217 94° East 458 527 37,000  Level Denver Center
Thu 04:32:16 PM 43.9053 -102.0103 94° East 459 528 37,000  Level Denver Center
Thu 04:33:18 PM 43.8956 -101.8347 94° East 459 528 37,000  Level Denver Center
Thu 04:34:20 PM 43.8900 -101.6628 93° East 452 520 37,000  Level Denver Center
Thu 04:34:41 PM 43.8828 -101.5886 98° East 460 529 37,000  Level Minneapolis Center
Thu 04:35:44 PM 43.8725 -101.4119 95° East 461 531 37,000  Level Minneapolis Center
Thu 04:36:46 PM 43.8589 -101.1989 95° East 462 532 37,000  Level Minneapolis Center
Thu 04:37:38 PM 43.8519 -101.0592 94° East 465 535 37,000  Level Denver Center
Thu 04:38:40 PM 43.8403 -100.8811 95° East 467 537 37,000  Level Denver Center
Thu 04:39:42 PM 43.8283 -100.7036 95° East 466 536 37,000  Level Denver Center
Thu 04:40:44 PM 43.8197 -100.5600 95° East 469 540 37,000  Level Denver Center
Thu 04:41:46 PM 43.8025 -100.3086 95° East 470 541 37,000  Level Denver Center
Thu 04:42:58 PM 43.7864 -100.0950 96° East 469 540 37,000  Level Minneapolis Center
Thu 04:44:00 PM 43.7750 -99.9189 95° East 467 537 37,000  Level Minneapolis Center
Thu 04:45:02 PM 43.7628 -99.7447 95° East 463 533 37,000  Level Minneapolis Center
Thu 04:46:04 PM 43.7489 -99.5711 96° East 461 531 37,000  Level Minneapolis Center
Thu 04:47:06 PM 43.7367 -99.3989 96° East 457 526 37,000  Level Minneapolis Center
Thu 04:48:08 PM 43.7208 -99.1939 96° East 452 520 37,000  Level Minneapolis Center
Thu 04:49:10 PM 43.7064 -99.0253 97° East 448 516 37,000  Level Minneapolis Center
Thu 04:50:13 PM 43.6925 -98.8550 96° East 447 514 37,000  Level Minneapolis Center
Thu 04:51:15 PM 43.6778 -98.6858 97° East 445 512 37,000  Level Minneapolis Center
Thu 04:52:17 PM 43.6625 -98.5178 97° East 445 512 37,000  Level Minneapolis Center
Thu 04:53:19 PM 43.6486 -98.3472 96° East 446 513 37,000  Level Minneapolis Center
Thu 04:54:21 PM 43.6311 -98.1408 97° East 451 519 37,000  Level Minneapolis Center
Thu 04:55:23 PM 43.6144 -97.9678 98° East 455 524 37,000  Level Minneapolis Center
Thu 04:56:25 PM 43.5983 -97.7956 97° East 455 524 37,000  Level Minneapolis Center
Thu 04:57:27 PM 43.5828 -97.6208 97° East 460 529 37,000  Level Minneapolis Center
Thu 04:58:29 PM 43.5669 -97.4458 97° East 461 531 37,000  Level Minneapolis Center
Thu 04:59:31 PM 43.5456 -97.2361 98° East 462 532 37,000  Level Minneapolis Center
Thu 05:00:33 PM 43.5283 -97.0600 98° East 465 535 37,000  Level Minneapolis Center
Thu 05:01:35 PM 43.5108 -96.8847 98° East 465 535 37,000  Level Minneapolis Center
Thu 05:02:37 PM 43.4936 -96.7100 98° East 465 535 37,000  Level Minneapolis Center
Thu 05:03:39 PM 43.4756 -96.5319 98° East 468 539 37,000  Level Minneapolis Center
Thu 05:04:42 PM 43.4528 -96.3197 98° East 471 542 37,000  Level Minneapolis Center
Thu 05:05:44 PM 43.4333 -96.1414 98° East 474 545 37,000  Level Minneapolis Center
Thu 05:06:46 PM 43.4147 -95.9631 98° East 476 548 37,000  Level Minneapolis Center
Thu 05:07:48 PM 43.3950 -95.7847 99° East 476 548 37,000  Level Minneapolis Center
Thu 05:08:50 PM 43.3758 -95.6075 98° East 473 544 37,000  Level Minneapolis Center
Thu 05:09:52 PM 43.3511 -95.3964 99° East 471 542 37,000  Level Minneapolis Center
Thu 05:10:54 PM 43.3300 -95.2192 99° East 472 543 37,000  Level Minneapolis Center
Thu 05:11:56 PM 43.3103 -95.0422 99° East 471 542 37,000  Level Minneapolis Center
Thu 05:12:58 PM 43.2889 -94.8664 99° East 471 542 37,000  Level Minneapolis Center
Thu 05:14:00 PM 43.2678 -94.6903 99° East 470 541 37,000  Level Minneapolis Center
Thu 05:15:02 PM 43.2472 -94.5136 99° East 470 541 37,000  Level Minneapolis Center
Thu 05:16:04 PM 43.2211 -94.3039 100° East 468 539 37,000  Level Minneapolis Center
Thu 05:17:06 PM 43.1983 -94.1339 100° East 469 540 37,000  Level Minneapolis Center
Thu 05:18:08 PM 43.1764 -93.9594 100° East 471 542 37,000  Level Minneapolis Center
Thu 05:19:10 PM 43.1539 -93.7858 100° East 468 539 37,000  Level Minneapolis Center
Thu 05:20:13 PM 43.1325 -93.6106 99° East 470 541 37,000  Level Minneapolis Center
Thu 05:21:15 PM 43.1044 -93.4006 100° East 473 544 37,000  Level Minneapolis Center
Thu 05:22:17 PM 43.0864 -93.2261 98° East 468 539 37,000  Level Minneapolis Center
Thu 05:23:19 PM 43.0769 -93.0461 94° East 476 548 37,000  Level Minneapolis Center
Thu 05:24:21 PM 43.0647 -92.8694 95° East 473 544 37,000  Level Minneapolis Center
Thu 05:25:23 PM 43.0522 -92.6917 95° East 474 545 37,000  Level Minneapolis Center
Thu 05:26:04 PM 43.0408 -92.5503 96° East 473 544 37,000  Level Chicago Center
Thu 05:27:06 PM 43.0281 -92.3714 96° East 476 548 37,000 -48 Level Chicago Center
Thu 05:28:08 PM 43.0142 -92.1928 96° East 476 548 36,900 -578 Descending Chicago Center
Thu 05:28:29 PM 43.0108 -92.1189 94° East 480 552 36,200 -1,839 Descending Minneapolis Center
Thu 05:29:10 PM 43.0014 -92.0092 97° East 486 559 35,000 -2,155 Descending Chicago Center
Thu 05:30:12 PM 42.9847 -91.7881 96° East 487 560 32,500 -1,920 Descending Chicago Center
Thu 05:31:15 PM 42.9711 -91.6025 96° East 487 560 31,000 -1,084 Descending Chicago Center
Thu 05:31:35 PM 42.9697 -91.5644 93° East 486 559 31,000  Level Minneapolis Center
Thu 05:32:37 PM 42.9506 -91.3461 97° East 480 552 31,000  Level Minneapolis Center
Thu 05:33:19 PM 42.9425 -91.2394 96° East 479 551 31,000  Level Chicago Center
Thu 05:34:21 PM 42.9275 -91.0603 96° East 477 549 31,000 -387 Level Chicago Center
Thu 05:35:23 PM 42.9125 -90.8808 96° East 479 551 30,200 -1,065 Descending Chicago Center
Thu 05:36:25 PM 42.8925 -90.6589 97° East 493 567 28,800 -1,210 Descending Chicago Center
Thu 05:37:27 PM 42.8775 -90.4875 97° East 449 517 27,700 -1,016 Descending Chicago Center
Thu 05:38:29 PM 42.8633 -90.3364 97° East 405 466 26,700 -968 Descending Chicago Center
Thu 05:39:31 PM 42.8497 -90.1897 97° East 395 455 25,700 -968 Descending Chicago Center
Thu 05:40:33 PM 42.8269 -90.0464 102° East 389 448 24,700 -1,161 Descending Chicago Center
Thu 05:41:35 PM 42.7828 -89.8906 111° Southeast 388 447 23,300 -1,440 Descending Chicago Center
Thu 05:42:38 PM 42.7467 -89.7611 111° Southeast 371 427 21,700 -1,536 Descending Chicago Center
Thu 05:43:40 PM 42.7106 -89.6322 111° Southeast 366 421 20,100 -1,694 Descending Chicago Center
Thu 05:44:42 PM 42.6675 -89.4836 111° Southeast 364 419 18,200 -1,742 Descending Chicago Center
Thu 05:45:44 PM 42.6306 -89.3542 111° Southeast 367 422 16,500 -1,645 Descending Chicago Center
Thu 05:46:46 PM 42.5947 -89.2319 112° Southeast 353 406 14,800 -1,210 Descending Chicago Center
Thu 05:47:48 PM 42.5606 -89.1153 112° Southeast 338 389 14,000 -484 Descending Chicago Center
Thu 05:48:50 PM 42.5278 -89.0061 112° Southeast 319 367 13,800 -484 Descending Chicago Center
Thu 05:49:52 PM 42.4908 -88.8775 111° Southeast 316 364 13,000 -726 Descending Chicago Center
Thu 05:50:54 PM 42.4789 -88.7603 98° East 324 373 12,300 -823 Descending Chicago Center
Thu 05:51:56 PM 42.4469 -88.6556 112° Southeast 314 361 11,300 -968 Descending Chicago Center
Thu 05:52:58 PM 42.4389 -88.5453 96° East 300 345 10,300 -960 Descending Chicago Center
Thu 05:54:01 PM 42.3944 -88.4581 125° Southeast 292 336 9,300 -624 Descending Chicago Center
Thu 05:55:03 PM 42.3344 -88.3756 135° Southeast 267 307 9,000 -145 Descending Chicago Center
Thu 05:56:05 PM 42.2761 -88.3694 176° South 247 284 9,000 -387 Level Chicago Center
Thu 05:57:07 PM 42.2094 -88.3567 172° South 208 239 8,200 -484 Descending Chicago Center
Thu 05:58:09 PM 42.1536 -88.3503 175° South 203 234 8,000 -194 Descending Chicago Center
Thu 05:59:11 PM 42.1092 -88.3750 202° Southwest 195 224 7,800 -581 Descending Chicago Center
Thu 06:00:13 PM 42.0786 -88.4289 233° Southwest 186 214 6,800 -968 Descending Chicago Center
Thu 06:01:15 PM 42.0322 -88.4508 199° South 199 229 5,800 -871 Descending Chicago Center
Thu 06:02:17 PM 41.9739 -88.4317 166° South 188 216 5,000 -387 Descending Chicago Center
Thu 06:03:19 PM 41.9669 -88.3625 98° East 187 215 5,000  Level Chicago Center
Thu 06:04:21 PM 41.9664 -88.2928 91° East 190 219 5,000  Level Chicago Center
Thu 06:05:23 PM 41.9681 -88.2264 88° East 182 209 5,000 -432 Level Chicago Center
Thu 06:06:26 PM 41.9675 -88.1589 91° East 181 208 4,100 -857 Descending Chicago Center

Login

Don't have an account? Register now (free) for customized features, flight alerts, and more!